Time;durP1;ratioP1;P1;durP2;ratioP2;P2;SDS_P1;SDS_P2;PMS_P1;PMS_P2;Temp;Humidity;BMP_temperature;BMP_pressure;BME280_temperature;BME280_humidity;BME280_pressure;Samples;Min_cycle;Max_cycle;Signal;HPM_P1;HPM_P2
2023/09/25 00:01:34;;;;;;;3.07;1.80;;;23.80;52.60;;;;;;5050472;27;92052;-53
2023/09/25 00:04:04;;;;;;;2.33;1.60;;;23.80;52.60;;;;;;5058111;27;92253;-53
2023/09/25 00:06:33;;;;;;;2.47;2.00;;;23.80;52.60;;;;;;5057601;27;94373;-54
2023/09/25 00:09:01;;;;;;;2.27;1.63;;;23.80;52.60;;;;;;5044373;27;93973;-54
2023/09/25 00:11:29;;;;;;;2.27;1.80;;;23.80;52.60;;;;;;5037728;27;91837;-54
2023/09/25 00:13:57;;;;;;;2.20;1.70;;;23.80;52.60;;;;;;5039914;28;91999;-54
2023/09/25 00:16:25;;;;;;;2.07;1.83;;;23.80;52.60;;;;;;5040531;28;93487;-54
2023/09/25 00:18:54;;;;;;;1.60;1.50;;;23.80;53.30;;;;;;5039201;28;93853;-54
2023/09/25 00:21:23;;;;;;;1.83;1.70;;;23.70;52.60;;;;;;5040716;28;92093;-54
2023/09/25 00:23:51;;;;;;;3.00;2.23;;;23.70;52.60;;;;;;5037927;28;91541;-54
2023/09/25 00:26:19;;;;;;;2.20;1.93;;;23.80;52.60;;;;;;5036362;28;93174;-54
2023/09/25 00:28:47;;;;;;;2.57;1.70;;;23.80;52.70;;;;;;5039554;27;92920;-54
2023/09/25 00:31:16;;;;;;;2.60;2.10;;;23.70;52.60;;;;;;5042169;27;93070;-54
2023/09/25 00:33:44;;;;;;;2.37;1.27;;;23.70;52.60;;;;;;5042278;27;92238;-54
2023/09/25 00:36:12;;;;;;;2.10;1.90;;;23.70;52.60;;;;;;5036434;28;93044;-54
2023/09/25 00:38:42;;;;;;;2.87;1.90;;;23.70;52.60;;;;;;5037216;28;92945;-54
2023/09/25 00:41:10;;;;;;;2.23;1.80;;;23.70;52.60;;;;;;5036757;28;92344;-54
2023/09/25 00:43:38;;;;;;;2.77;1.80;;;23.70;52.60;;;;;;5037235;28;92073;-54
2023/09/25 00:46:06;;;;;;;2.20;1.90;;;23.70;52.60;;;;;;5038342;28;94152;-54
2023/09/25 00:48:34;;;;;;;3.60;1.77;;;23.70;52.60;;;;;;5038270;28;93755;-54
2023/09/25 00:51:03;;;;;;;2.40;1.30;;;23.70;52.60;;;;;;5038347;28;92135;-54
2023/09/25 00:53:31;;;;;;;2.90;1.80;;;23.70;52.60;;;;;;5038709;28;92089;-54
2023/09/25 00:56:01;;;;;;;2.00;1.50;;;23.70;52.60;;;;;;5037925;28;94019;-54
2023/09/25 00:58:29;;;;;;;3.20;2.07;;;23.70;52.60;;;;;;5036693;28;93652;-54
2023/09/25 01:00:57;;;;;;;2.07;1.60;;;23.70;52.60;;;;;;5039315;27;93596;-54
2023/09/25 01:03:25;;;;;;;5.23;1.93;;;23.70;52.60;;;;;;5050664;27;92177;-54
2023/09/25 01:05:53;;;;;;;1.73;1.30;;;23.60;52.50;;;;;;5050842;27;93391;-54
2023/09/25 01:08:21;;;;;;;2.97;1.70;;;23.60;52.50;;;;;;5054450;27;92848;-54
2023/09/25 01:10:50;;;;;;;3.13;1.50;;;23.60;52.50;;;;;;5055684;27;92108;-54
2023/09/25 01:13:20;;;;;;;2.87;1.47;;;23.60;52.50;;;;;;5037856;27;91465;-54
2023/09/25 01:15:48;;;;;;;2.13;1.83;;;23.60;52.50;;;;;;5042736;27;94124;-54
2023/09/25 01:18:16;;;;;;;2.17;1.73;;;23.70;52.60;;;;;;5039230;27;92712;-54
2023/09/25 01:20:44;;;;;;;2.93;1.80;;;23.60;52.50;;;;;;5040214;27;93140;-54
2023/09/25 01:23:14;;;;;;;2.77;1.87;;;23.60;52.50;;;;;;5044254;27;93807;-54
2023/09/25 01:25:42;;;;;;;3.23;1.60;;;23.60;52.50;;;;;;5044820;27;93074;-54
2023/09/25 01:28:10;;;;;;;3.30;2.57;;;23.70;52.60;;;;;;5046705;27;93716;-54
2023/09/25 01:30:38;;;;;;;2.30;1.67;;;23.60;52.50;;;;;;5049158;27;92033;-54
2023/09/25 01:33:06;;;;;;;4.47;2.63;;;23.70;52.60;;;;;;5041876;27;92068;-54
2023/09/25 01:35:35;;;;;;;2.50;2.30;;;23.60;52.50;;;;;;5041139;27;93152;-54
2023/09/25 01:38:04;;;;;;;5.07;2.63;;;23.60;52.50;;;;;;5041062;27;92781;-54
2023/09/25 01:40:34;;;;;;;3.20;2.37;;;23.60;52.50;;;;;;5037416;27;92156;-54
2023/09/25 01:43:02;;;;;;;2.97;2.37;;;23.60;53.20;;;;;;5043106;27;93568;-54
2023/09/25 01:45:30;;;;;;;3.20;1.77;;;23.60;52.50;;;;;;5036031;28;94015;-54
2023/09/25 01:47:58;;;;;;;2.43;1.97;;;23.60;52.50;;;;;;5035365;28;93885;-54
2023/09/25 01:50:28;;;;;;;4.10;2.70;;;23.60;52.50;;;;;;5037279;28;92070;-54
2023/09/25 01:52:57;;;;;;;5.50;2.37;;;23.60;52.50;;;;;;5037491;28;92107;-54
2023/09/25 01:55:27;;;;;;;2.97;2.60;;;23.60;52.60;;;;;;5037167;28;94129;-54
2023/09/25 01:57:56;;;;;;;4.27;2.80;;;23.60;52.50;;;;;;5044992;27;92873;-54
2023/09/25 02:00:24;;;;;;;5.40;2.60;;;23.60;52.50;;;;;;5048622;27;92264;-54
2023/09/25 02:02:52;;;;;;;3.60;3.07;;;23.60;52.50;;;;;;5038223;27;91385;-54
2023/09/25 02:05:21;;;;;;;4.17;3.20;;;23.60;52.60;;;;;;5038216;28;94145;-54
2023/09/25 02:07:49;;;;;;;3.67;2.93;;;23.50;52.50;;;;;;5038693;28;92746;-54
2023/09/25 02:10:17;;;;;;;3.37;2.47;;;23.60;52.60;;;;;;5037995;28;93065;-54
2023/09/25 02:12:45;;;;;;;4.70;3.17;;;23.50;52.50;;;;;;5039338;28;92062;-54
2023/09/25 02:15:15;;;;;;;6.17;3.07;;;23.50;52.50;;;;;;5053563;27;92875;-54
2023/09/25 02:17:43;;;;;;;5.07;3.30;;;23.50;52.50;;;;;;5058114;27;92780;-54
2023/09/25 02:20:17;;;;;;;5.03;3.13;;;23.50;52.50;;;;;;5059496;27;92111;-54
2023/09/25 02:22:46;;;;;;;3.20;2.10;;;23.50;52.50;;;;;;5037963;27;92171;-54
2023/09/25 02:25:15;;;;;;;4.80;2.97;;;23.50;52.50;;;;;;5018644;28;93072;-53
2023/09/25 02:27:43;;;;;;;5.40;2.50;;;23.50;52.50;;;;;;5031437;28;92882;-53
2023/09/25 02:30:11;;;;;;;5.33;3.10;;;23.50;52.50;;;;;;5037274;28;92093;-53
2023/09/25 02:32:41;;;;;;;3.67;2.60;;;23.50;52.50;;;;;;5036873;28;92103;-53
2023/09/25 02:35:10;;;;;;;7.40;3.17;;;23.50;52.60;;;;;;5034738;27;93814;-53
2023/09/25 02:37:40;;;;;;;5.40;3.10;;;23.50;52.50;;;;;;5035768;28;93653;-53
2023/09/25 02:40:10;;;;;;;3.37;2.73;;;23.50;52.50;;;;;;5036219;28;92264;-53
2023/09/25 02:42:38;;;;;;;5.67;2.90;;;23.50;52.50;;;;;;5034754;28;92014;-54
2023/09/25 02:45:07;;;;;;;4.73;3.30;;;23.50;52.50;;;;;;5036826;28;92943;-54
2023/09/25 02:47:35;;;;;;;5.90;3.20;;;23.50;52.50;;;;;;5036719;28;92574;-53
2023/09/25 02:50:06;;;;;;;3.97;3.07;;;23.40;52.40;;;;;;5037002;28;92359;-53
2023/09/25 02:52:34;;;;;;;5.93;3.03;;;23.40;53.10;;;;;;5037223;28;91523;-53
2023/09/25 02:55:02;;;;;;;4.13;2.87;;;23.50;53.20;;;;;;5034017;28;93623;-54
2023/09/25 02:57:30;;;;;;;5.10;3.40;;;23.50;52.50;;;;;;5036027;28;92789;-53
2023/09/25 02:59:58;;;;;;;5.27;3.83;;;23.50;52.50;;;;;;5036284;28;93369;-53
2023/09/25 03:02:26;;;;;;;3.90;2.87;;;23.50;52.50;;;;;;5045189;27;92056;-53
2023/09/25 03:04:55;;;;;;;4.00;3.07;;;23.40;52.40;;;;;;5053719;27;93225;-53
2023/09/25 03:07:24;;;;;;;4.53;3.43;;;23.40;52.40;;;;;;5056397;27;92748;-53
2023/09/25 03:09:52;;;;;;;5.47;3.40;;;23.40;52.40;;;;;;5053817;27;93849;-54
2023/09/25 03:12:20;;;;;;;5.87;3.50;;;23.40;52.40;;;;;;5053089;27;92681;-53
2023/09/25 03:14:48;;;;;;;6.47;3.30;;;23.40;52.40;;;;;;5054033;27;93207;-54
2023/09/25 03:17:16;;;;;;;6.17;2.60;;;23.40;52.40;;;;;;5055039;27;93343;-54
2023/09/25 03:19:44;;;;;;;2.83;2.00;;;23.50;52.50;;;;;;5053114;27;92610;-53
2023/09/25 03:22:12;;;;;;;4.70;3.07;;;23.40;52.40;;;;;;5052614;27;93804;-53
2023/09/25 03:24:42;;;;;;;7.27;3.67;;;23.40;52.40;;;;;;5053132;27;94197;-53
2023/09/25 03:27:10;;;;;;;4.77;3.57;;;23.40;53.00;;;;;;5052828;27;93854;-53
2023/09/25 03:29:38;;;;;;;3.27;2.30;;;23.40;52.30;;;;;;5048989;27;92730;-53
2023/09/25 03:32:07;;;;;;;3.53;2.90;;;23.40;52.40;;;;;;5053416;27;92174;-53
2023/09/25 03:34:35;;;;;;;4.73;2.80;;;23.40;52.30;;;;;;5053775;27;92973;-53
2023/09/25 03:37:02;;;;;;;3.87;2.87;;;23.40;52.30;;;;;;5051337;27;93806;-53
2023/09/25 03:39:31;;;;;;;4.80;2.90;;;23.40;52.30;;;;;;5053756;27;94104;-53
2023/09/25 03:42:00;;;;;;;5.60;3.50;;;23.40;52.30;;;;;;5054105;27;91496;-54
2023/09/25 03:44:28;;;;;;;6.77;3.20;;;23.40;52.40;;;;;;5049526;27;92190;-53
2023/09/25 03:46:56;;;;;;;4.37;3.03;;;23.40;52.30;;;;;;5052375;27;92715;-53
2023/09/25 03:49:25;;;;;;;5.13;3.20;;;23.40;52.40;;;;;;5051816;27;92998;-53
2023/09/25 03:51:53;;;;;;;4.43;2.87;;;23.40;52.40;;;;;;5053050;27;92077;-53
2023/09/25 03:54:21;;;;;;;3.63;2.50;;;23.40;53.00;;;;;;5053149;27;93207;-54
2023/09/25 03:56:49;;;;;;;4.10;2.83;;;23.30;52.30;;;;;;5052601;27;92737;-54
2023/09/25 03:59:18;;;;;;;3.67;2.80;;;23.30;52.30;;;;;;5055035;27;92180;-54
2023/09/25 04:01:46;;;;;;;3.57;2.80;;;23.30;52.30;;;;;;5053726;27;91955;-53
2023/09/25 04:04:14;;;;;;;7.43;3.07;;;23.30;52.30;;;;;;5054779;27;93216;-53
2023/09/25 04:06:43;;;;;;;4.70;2.97;;;23.40;52.40;;;;;;5054405;27;92746;-54
2023/09/25 04:09:11;;;;;;;3.33;3.03;;;23.30;52.30;;;;;;5054799;27;92170;-53
2023/09/25 04:11:39;;;;;;;5.37;3.03;;;23.30;52.30;;;;;;5054763;27;92212;-53
2023/09/25 04:14:07;;;;;;;4.73;2.93;;;23.30;52.30;;;;;;5049467;27;95151;-54
2023/09/25 04:16:37;;;;;;;5.57;2.87;;;23.30;52.40;;;;;;5055196;27;93648;-54
2023/09/25 04:19:05;;;;;;;5.40;2.70;;;23.30;52.30;;;;;;5056127;27;92013;-54
2023/09/25 04:21:33;;;;;;;6.40;2.80;;;23.30;52.30;;;;;;5056966;27;91991;-54
2023/09/25 04:24:01;;;;;;;4.17;2.83;;;23.30;52.30;;;;;;5057172;27;94332;-54
2023/09/25 04:26:30;;;;;;;5.83;2.67;;;23.30;52.30;;;;;;5056479;27;92773;-54
2023/09/25 04:28:58;;;;;;;4.17;2.83;;;23.30;52.40;;;;;;5054265;27;91951;-53
2023/09/25 04:31:28;;;;;;;4.30;3.10;;;23.30;52.40;;;;;;5053373;27;91355;-53
2023/09/25 04:34:03;;;;;;;2.30;2.03;;;23.30;52.40;;;;;;5053845;27;93176;-53
2023/09/25 04:36:31;;;;;;;6.33;3.27;;;23.30;52.40;;;;;;5052864;27;93859;-53
2023/09/25 04:38:59;;;;;;;2.63;2.03;;;23.30;52.30;;;;;;5052729;27;92985;-53
2023/09/25 04:41:27;;;;;;;4.60;2.67;;;23.30;52.40;;;;;;5052606;27;92210;-53
2023/09/25 04:43:55;;;;;;;4.83;2.40;;;23.20;52.20;;;;;;5051082;27;93752;-54
2023/09/25 04:46:23;;;;;;;4.00;2.80;;;23.30;52.40;;;;;;5053412;27;92791;-53
2023/09/25 04:48:51;;;;;;;3.07;2.40;;;23.20;52.20;;;;;;5055757;27;92078;-54
2023/09/25 04:51:21;;;;;;;2.97;2.53;;;23.30;52.40;;;;;;5055387;27;92099;-53
2023/09/25 04:53:49;;;;;;;4.27;2.60;;;23.30;52.40;;;;;;5054697;27;93271;-54
2023/09/25 04:56:21;;;;;;;3.60;2.70;;;23.30;52.40;;;;;;5054609;27;93835;-54
2023/09/25 04:58:49;;;;;;;2.93;2.20;;;23.20;52.30;;;;;;5055097;27;93844;-54
2023/09/25 05:01:17;;;;;;;5.20;2.63;;;23.30;52.40;;;;;;5058847;27;93424;-54
2023/09/25 05:03:46;;;;;;;4.27;2.57;;;23.20;52.30;;;;;;5047916;27;94193;-56
2023/09/25 05:06:14;;;;;;;2.80;2.13;;;23.20;52.30;;;;;;5057530;27;93910;-53
2023/09/25 05:08:44;;;;;;;3.10;2.53;;;23.20;52.30;;;;;;5045877;27;92164;-53
2023/09/25 05:11:12;;;;;;;2.07;1.80;;;23.20;52.30;;;;;;5038470;27;92045;-53
2023/09/25 05:13:40;;;;;;;3.03;2.00;;;23.20;52.30;;;;;;5039390;27;93202;-53
2023/09/25 05:16:08;;;;;;;3.50;2.40;;;23.20;52.30;;;;;;5042983;27;92138;-53
2023/09/25 05:18:36;;;;;;;2.90;2.23;;;23.30;52.40;;;;;;5040290;27;91969;-53
2023/09/25 05:21:05;;;;;;;3.30;2.00;;;23.20;53.00;;;;;;5049257;27;91410;-55
2023/09/25 05:23:33;;;;;;;4.90;2.57;;;23.20;53.00;;;;;;5046866;27;93072;-55
2023/09/25 05:26:02;;;;;;;2.40;1.87;;;23.30;52.50;;;;;;5045699;27;93701;-55
2023/09/25 05:28:30;;;;;;;5.37;2.80;;;23.30;52.50;;;;;;5047789;27;93116;-59
2023/09/25 05:30:58;;;;;;;2.50;2.03;;;23.30;52.50;;;;;;5045495;27;92157;-56
2023/09/25 05:33:26;;;;;;;4.83;2.63;;;23.30;52.50;;;;;;5038231;27;92020;-57
2023/09/25 05:35:55;;;;;;;2.57;2.27;;;23.30;52.60;;;;;;5038890;27;92854;-57
2023/09/25 05:38:23;;;;;;;7.67;2.20;;;23.30;52.60;;;;;;5039485;27;92036;-57
2023/09/25 05:40:51;;;;;;;2.50;1.80;;;23.40;52.60;;;;;;5048184;27;92083;-57
2023/09/25 05:43:20;;;;;;;1.70;1.60;;;23.40;52.80;;;;;;5049362;27;93916;-57
2023/09/25 05:45:51;;;;;;;2.63;1.93;;;23.40;52.80;;;;;;5037277;27;92715;-57
2023/09/25 05:48:19;;;;;;;3.10;1.63;;;23.40;52.80;;;;;;5049452;27;92106;-56
2023/09/25 05:50:47;;;;;;;2.93;1.57;;;23.40;52.80;;;;;;5037688;27;92137;-57
2023/09/25 05:53:15;;;;;;;2.80;1.83;;;23.40;52.80;;;;;;5038068;27;94064;-56
2023/09/25 05:55:43;;;;;;;3.67;2.00;;;23.40;52.80;;;;;;5048293;27;93600;-56
2023/09/25 05:58:12;;;;;;;4.70;1.60;;;23.40;52.90;;;;;;5036827;27;92071;-57
2023/09/25 06:00:46;;;;;;;3.27;2.20;;;23.40;52.90;;;;;;5043355;27;92656;-56
2023/09/25 06:03:14;;;;;;;2.93;2.13;;;23.40;52.90;;;;;;5047652;27;93098;-57
2023/09/25 06:05:43;;;;;;;4.07;2.40;;;23.40;53.00;;;;;;5049907;27;93809;-57
2023/09/25 06:08:11;;;;;;;3.10;1.60;;;23.40;52.90;;;;;;5039028;27;92059;-57
2023/09/25 06:10:40;;;;;;;4.97;2.00;;;23.40;53.00;;;;;;5040379;27;91296;-57
2023/09/25 06:13:08;;;;;;;2.57;1.90;;;23.40;53.00;;;;;;5049902;27;93159;-57
2023/09/25 06:15:37;;;;;;;4.83;2.33;;;23.40;53.00;;;;;;5052594;27;92639;-57
2023/09/25 06:18:09;;;;;;;3.17;1.67;;;23.40;53.00;;;;;;5055978;27;94339;-56
2023/09/25 06:20:38;;;;;;;2.60;1.93;;;23.40;53.00;;;;;;5042263;27;92302;-57
2023/09/25 06:23:06;;;;;;;3.43;1.50;;;23.40;53.00;;;;;;5034709;27;93149;-56
2023/09/25 06:25:35;;;;;;;1.60;1.50;;;23.40;53.00;;;;;;5037667;27;92144;-56
2023/09/25 06:28:03;;;;;;;3.10;1.57;;;23.40;53.10;;;;;;5039186;27;92169;-56
2023/09/25 06:30:31;;;;;;;3.20;1.97;;;23.40;53.10;;;;;;5036394;27;92039;-57
2023/09/25 06:32:59;;;;;;;1.43;1.27;;;23.40;53.10;;;;;;5037432;27;92964;-57
2023/09/25 06:35:29;;;;;;;2.03;1.37;;;23.40;53.10;;;;;;5050664;27;93690;-57
2023/09/25 06:37:57;;;;;;;3.17;1.63;;;23.40;53.10;;;;;;5038938;27;92133;-56
2023/09/25 06:40:25;;;;;;;7.70;1.70;;;23.40;53.10;;;;;;5037195;27;93751;-59
2023/09/25 06:42:53;;;;;;;2.90;1.67;;;23.50;53.20;;;;;;5035081;27;93918;-56
2023/09/25 06:45:22;;;;;;;2.73;1.90;;;23.40;53.10;;;;;;5043962;27;93753;-57
2023/09/25 06:47:50;;;;;;;2.53;1.57;;;23.50;53.20;;;;;;5044982;27;92208;-56
2023/09/25 06:50:18;;;;;;;1.90;1.27;;;23.50;53.20;;;;;;5037858;27;92907;-57
2023/09/25 06:52:48;;;;;;;2.83;1.50;;;23.50;53.20;;;;;;5037716;27;93108;-56
2023/09/25 06:55:16;;;;;;;2.30;1.63;;;23.50;53.20;;;;;;5055426;27;92766;-56
2023/09/25 06:57:44;;;;;;;1.63;1.40;;;23.50;53.20;;;;;;5051823;27;91854;-56
2023/09/25 07:00:14;;;;;;;3.43;1.60;;;23.50;53.20;;;;;;5056790;27;93251;-56
2023/09/25 07:02:43;;;;;;;1.50;1.07;;;23.50;53.80;;;;;;5034887;27;93258;-56
2023/09/25 07:05:11;;;;;;;2.03;1.57;;;23.50;53.20;;;;;;5038788;27;92848;-56
2023/09/25 07:07:40;;;;;;;3.13;1.53;;;23.60;53.20;;;;;;5042736;27;92987;-57
2023/09/25 07:10:10;;;;;;;1.20;1.10;;;23.50;53.20;;;;;;5051609;27;92064;-56
2023/09/25 07:12:39;;;;;;;1.33;1.17;;;23.50;53.20;;;;;;5046015;27;91878;-56
2023/09/25 07:15:08;;;;;;;2.90;1.70;;;23.50;53.20;;;;;;5035106;27;92963;-57
2023/09/25 07:17:36;;;;;;;1.40;1.30;;;23.60;53.30;;;;;;5050633;27;92058;-57
2023/09/25 07:20:05;;;;;;;1.67;1.40;;;23.50;53.20;;;;;;5038556;27;92345;-55
2023/09/25 07:22:33;;;;;;;5.07;1.47;;;23.50;53.20;;;;;;5036267;27;93274;-55
2023/09/25 07:25:02;;;;;;;1.53;1.27;;;23.50;53.20;;;;;;5037741;27;92731;-57
2023/09/25 07:27:31;;;;;;;2.13;1.47;;;23.50;53.20;;;;;;5038257;27;92014;-53
2023/09/25 07:30:01;;;;;;;1.23;1.10;;;23.50;53.20;;;;;;5052587;27;92193;-53
2023/09/25 07:32:29;;;;;;;3.13;1.20;;;23.50;53.30;;;;;;5057504;27;94073;-53
2023/09/25 07:34:58;;;;;;;2.90;1.43;;;23.50;53.30;;;;;;5057784;27;93663;-53
2023/09/25 07:37:26;;;;;;;2.00;1.50;;;23.60;53.30;;;;;;5058763;27;92081;-53
2023/09/25 07:39:54;;;;;;;1.50;1.37;;;23.50;53.30;;;;;;5057808;27;92063;-53
2023/09/25 07:42:22;;;;;;;1.80;1.13;;;23.50;53.30;;;;;;5057076;27;93173;-54
2023/09/25 07:44:52;;;;;;;0.93;0.87;;;23.50;53.20;;;;;;5033633;27;92703;-53
2023/09/25 07:47:20;;;;;;;1.70;1.27;;;23.50;53.20;;;;;;5026533;28;91994;-53
2023/09/25 07:49:48;;;;;;;1.10;1.00;;;23.50;53.30;;;;;;5017467;28;91269;-53
2023/09/25 07:52:16;;;;;;;1.23;1.10;;;23.50;53.20;;;;;;5035888;28;93105;-53
2023/09/25 07:54:45;;;;;;;1.50;1.03;;;23.50;53.20;;;;;;5031727;28;92372;-53
2023/09/25 07:57:15;;;;;;;2.50;1.43;;;23.50;53.20;;;;;;5017169;28;92971;-53
2023/09/25 07:59:43;;;;;;;6.37;1.57;;;23.50;53.20;;;;;;5017375;28;92087;-53
2023/09/25 08:02:16;;;;;;;1.17;1.03;;;23.50;53.20;;;;;;5025457;28;92884;-53
2023/09/25 08:04:44;;;;;;;4.73;1.57;;;23.50;53.20;;;;;;5037322;28;92083;-53
2023/09/25 08:07:12;;;;;;;1.47;1.10;;;23.50;53.20;;;;;;5037419;28;91910;-53
2023/09/25 08:09:41;;;;;;;1.43;1.00;;;23.50;53.20;;;;;;5037205;28;91959;-53
2023/09/25 08:12:09;;;;;;;1.10;1.00;;;23.50;53.20;;;;;;5037174;28;94350;-53
2023/09/25 08:14:37;;;;;;;1.20;1.10;;;23.50;53.20;;;;;;5045258;27;92843;-53
2023/09/25 08:17:05;;;;;;;1.77;1.30;;;23.50;53.20;;;;;;5057529;27;92192;-53
2023/09/25 08:19:35;;;;;;;1.93;0.97;;;23.50;53.20;;;;;;5057646;27;92067;-53
2023/09/25 08:22:03;;;;;;;1.47;1.30;;;23.50;53.20;;;;;;5055169;27;95010;-53
2023/09/25 08:24:31;;;;;;;4.20;1.53;;;23.50;53.20;;;;;;5055805;27;93626;-53
2023/09/25 08:26:59;;;;;;;2.10;1.43;;;23.50;53.20;;;;;;5053511;27;91913;-53
2023/09/25 08:29:28;;;;;;;1.57;1.17;;;23.50;53.20;;;;;;5053465;27;92339;-53
2023/09/25 08:31:56;;;;;;;2.53;1.13;;;23.50;53.10;;;;;;5055359;27;93033;-53
2023/09/25 08:34:24;;;;;;;1.23;1.13;;;23.50;53.10;;;;;;5056178;27;92974;-53
2023/09/25 08:36:53;;;;;;;3.47;1.37;;;23.50;53.10;;;;;;5058556;27;93428;-53
2023/09/25 08:39:21;;;;;;;1.70;1.33;;;23.50;53.10;;;;;;5059710;27;91492;-53
2023/09/25 08:41:49;;;;;;;2.87;1.80;;;23.50;53.00;;;;;;5060021;27;93143;-52
2023/09/25 08:44:17;;;;;;;2.70;1.93;;;23.50;53.00;;;;;;5059353;27;92764;-53
2023/09/25 08:46:45;;;;;;;3.60;1.87;;;23.50;53.00;;;;;;5060237;27;93088;-53
2023/09/25 08:49:14;;;;;;;2.23;1.53;;;23.50;53.00;;;;;;5059899;27;92044;-53
2023/09/25 08:51:42;;;;;;;2.63;1.67;;;23.50;53.00;;;;;;5057440;27;93117;-53
2023/09/25 08:54:12;;;;;;;2.97;2.33;;;23.50;53.00;;;;;;5059999;27;93490;-53
2023/09/25 08:56:40;;;;;;;3.23;1.93;;;23.50;53.00;;;;;;5060388;27;91970;-53
2023/09/25 08:59:08;;;;;;;4.63;2.47;;;23.50;53.00;;;;;;5059663;27;91963;-53
2023/09/25 09:01:37;;;;;;;3.07;2.30;;;23.50;52.90;;;;;;5057342;27;93291;-53
2023/09/25 09:04:06;;;;;;;4.33;2.17;;;23.50;53.60;;;;;;5059470;27;91642;-54
2023/09/25 09:06:34;;;;;;;5.60;3.63;;;23.60;53.00;;;;;;5058943;27;92159;-53
2023/09/25 09:09:03;;;;;;;4.47;3.10;;;23.50;52.90;;;;;;5055006;27;92018;-53
2023/09/25 09:11:32;;;;;;;5.10;3.33;;;23.60;53.00;;;;;;5059164;27;94028;-53
2023/09/25 09:14:03;;;;;;;3.13;2.27;;;23.50;52.90;;;;;;5056887;27;93693;-53
2023/09/25 09:16:31;;;;;;;4.17;2.60;;;23.60;53.00;;;;;;5060156;27;92463;-52
2023/09/25 09:19:06;;;;;;;4.07;2.73;;;23.60;53.00;;;;;;5058965;27;92171;-53
2023/09/25 09:21:35;;;;;;;5.13;3.17;;;23.50;52.90;;;;;;5059570;27;93108;-53
2023/09/25 09:24:04;;;;;;;5.40;3.47;;;23.60;52.90;;;;;;5057003;27;92827;-53
2023/09/25 09:26:36;;;;;;;4.97;3.77;;;23.60;52.90;;;;;;5059375;27;92102;-52
2023/09/25 09:29:04;;;;;;;7.73;4.57;;;23.60;52.90;;;;;;5057330;27;92611;-53
2023/09/25 09:31:32;;;;;;;6.77;3.73;;;23.60;52.90;;;;;;5058954;27;93057;-54
2023/09/25 09:34:00;;;;;;;3.73;3.30;;;23.60;52.90;;;;;;5058940;27;93102;-53
2023/09/25 09:36:29;;;;;;;4.37;3.60;;;23.60;52.90;;;;;;5059926;27;92870;-53
2023/09/25 09:38:57;;;;;;;6.27;4.03;;;23.60;53.50;;;;;;5059296;27;92339;-52
2023/09/25 09:41:25;;;;;;;5.50;3.47;;;23.60;52.90;;;;;;5059783;27;93070;-53
2023/09/25 09:43:54;;;;;;;7.23;3.67;;;23.60;52.90;;;;;;5059828;27;93799;-53
2023/09/25 09:46:24;;;;;;;5.57;4.03;;;23.60;52.90;;;;;;5057902;27;91925;-54
2023/09/25 09:48:52;;;;;;;6.00;3.93;;;23.60;52.90;;;;;;5058964;27;92138;-53
2023/09/25 09:51:20;;;;;;;7.50;3.93;;;23.60;52.90;;;;;;5059271;27;92942;-53
2023/09/25 09:53:49;;;;;;;6.40;4.00;;;23.60;53.50;;;;;;5059151;27;92787;-53
2023/09/25 09:56:18;;;;;;;6.43;4.27;;;23.60;52.80;;;;;;5059029;27;92038;-53
2023/09/25 09:58:46;;;;;;;6.30;3.77;;;23.70;52.90;;;;;;5057305;27;92038;-53
2023/09/25 10:01:16;;;;;;;9.27;4.07;;;23.70;53.50;;;;;;5057753;27;94022;-53
2023/09/25 10:03:45;;;;;;;5.90;3.80;;;23.70;52.90;;;;;;5056286;27;92451;-53
2023/09/25 10:06:13;;;;;;;5.07;3.33;;;23.60;52.80;;;;;;5058698;27;92054;-53
2023/09/25 10:08:59;;;;;;;6.80;3.43;;;23.70;52.90;;;;;;5058544;27;93537;-54
2023/09/25 10:11:27;;;;;;;4.40;3.33;;;23.60;52.80;;;;;;5057299;27;93403;-53
2023/09/25 10:14:01;;;;;;;5.60;3.77;;;23.70;52.90;;;;;;5055429;27;92737;-53
2023/09/25 10:16:31;;;;;;;6.47;3.50;;;23.70;53.50;;;;;;5058743;27;92117;-53
2023/09/25 10:18:59;;;;;;;5.03;3.00;;;23.70;52.90;;;;;;5059261;27;91363;-54
2023/09/25 10:21:27;;;;;;;5.97;4.13;;;23.70;52.90;;;;;;5058260;27;94201;-53
2023/09/25 10:23:56;;;;;;;6.57;3.03;;;23.70;52.90;;;;;;5058308;27;93900;-54
2023/09/25 10:26:26;;;;;;;7.67;3.97;;;23.70;52.90;;;;;;5058044;27;92998;-53
2023/09/25 10:28:58;;;;;;;5.40;3.20;;;23.70;52.90;;;;;;5057694;27;92069;-53
2023/09/25 10:31:29;;;;;;;4.80;3.33;;;23.70;52.80;;;;;;5057944;27;93004;-53
2023/09/25 10:34:00;;;;;;;4.13;3.13;;;23.70;52.80;;;;;;5055505;27;92762;-53
2023/09/25 10:36:38;;;;;;;7.40;4.33;;;23.70;52.80;;;;;;5059212;27;91958;-53
2023/09/25 10:39:08;;;;;;;7.80;3.60;;;23.80;53.00;;;;;;5056465;27;92034;-53
2023/09/25 10:41:36;;;;;;;5.30;3.23;;;23.70;52.80;;;;;;5058289;27;92126;-53
2023/09/25 10:44:05;;;;;;;6.47;3.77;;;23.70;52.80;;;;;;5058079;27;92359;-53
2023/09/25 10:46:33;;;;;;;4.27;3.13;;;23.80;52.90;;;;;;5053598;27;92096;-53
2023/09/25 10:49:03;;;;;;;5.97;3.60;;;23.80;52.90;;;;;;5056809;27;92106;-54
2023/09/25 10:51:31;;;;;;;5.00;3.10;;;23.80;52.90;;;;;;5053791;27;94191;-53
2023/09/25 10:54:01;;;;;;;3.63;2.97;;;23.80;52.90;;;;;;5057416;27;93856;-53
2023/09/25 10:56:30;;;;;;;4.03;2.90;;;23.80;52.90;;;;;;5055295;27;92458;-53
2023/09/25 10:58:58;;;;;;;5.20;3.27;;;23.80;52.90;;;;;;5058483;27;92062;-53
2023/09/25 11:01:28;;;;;;;4.63;3.13;;;23.80;52.90;;;;;;5057638;27;94229;-53
2023/09/25 11:03:59;;;;;;;5.13;3.37;;;23.80;52.90;;;;;;5054304;27;93601;-53
2023/09/25 11:06:29;;;;;;;6.17;3.00;;;23.80;52.90;;;;;;5058238;27;92926;-54
2023/09/25 11:08:58;;;;;;;5.17;3.50;;;23.90;52.90;;;;;;5058252;27;91326;-53
2023/09/25 11:11:29;;;;;;;5.30;2.67;;;23.90;52.90;;;;;;5058675;27;94573;-53
2023/09/25 11:13:57;;;;;;;5.90;2.83;;;23.90;52.90;;;;;;5057519;27;92734;-53
2023/09/25 11:16:25;;;;;;;3.60;2.77;;;23.90;52.90;;;;;;5057818;27;93891;-53
2023/09/25 11:19:07;;;;;;;2.93;2.60;;;23.90;52.90;;;;;;5057444;27;92017;-53
2023/09/25 11:21:36;;;;;;;3.07;2.30;;;23.90;52.90;;;;;;5056217;27;94282;-53
2023/09/25 11:24:07;;;;;;;3.70;2.23;;;23.90;52.90;;;;;;5058055;27;92925;-54
2023/09/25 11:26:37;;;;;;;2.43;1.90;;;23.90;52.90;;;;;;5058569;27;92100;-54
2023/09/25 11:29:07;;;;;;;3.90;2.07;;;23.90;52.90;;;;;;5058458;27;92111;-53
2023/09/25 11:31:36;;;;;;;3.20;2.10;;;23.90;52.90;;;;;;5058108;27;93044;-54
2023/09/25 11:34:24;;;;;;;3.00;1.97;;;23.90;52.90;;;;;;5057880;27;92423;-54
2023/09/25 11:36:54;;;;;;;3.57;2.30;;;23.90;52.90;;;;;;5058322;27;91769;-54
2023/09/25 11:39:22;;;;;;;2.57;2.03;;;23.90;52.80;;;;;;5057521;27;92138;-54
2023/09/25 11:41:50;;;;;;;5.33;2.60;;;24.00;52.90;;;;;;5055777;27;94087;-53
2023/09/25 11:44:18;;;;;;;3.93;2.50;;;24.00;52.90;;;;;;5058053;27;93859;-54
2023/09/25 11:46:46;;;;;;;2.03;1.83;;;24.00;52.90;;;;;;5058071;27;92090;-54
2023/09/25 11:49:15;;;;;;;3.17;2.10;;;24.00;52.90;;;;;;5057526;27;92130;-54
2023/09/25 11:51:43;;;;;;;3.07;1.60;;;24.10;52.90;;;;;;5056305;27;93091;-54
2023/09/25 11:54:12;;;;;;;2.87;2.30;;;24.10;52.90;;;;;;5057053;27;92874;-53
2023/09/25 11:56:41;;;;;;;2.70;1.90;;;24.10;52.90;;;;;;5057978;27;91971;-53
2023/09/25 11:59:11;;;;;;;3.27;2.00;;;24.10;52.90;;;;;;5058325;27;91562;-53
2023/09/25 12:01:39;;;;;;;3.30;2.20;;;24.10;52.90;;;;;;5058046;27;94114;-53
2023/09/25 12:04:08;;;;;;;2.73;2.00;;;24.10;52.90;;;;;;5057049;27;93864;-53
2023/09/25 12:06:36;;;;;;;3.13;1.80;;;24.10;52.90;;;;;;5057642;27;93094;-53
2023/09/25 12:09:11;;;;;;;3.67;1.97;;;24.10;53.60;;;;;;5056225;27;92215;-54
2023/09/25 12:11:41;;;;;;;3.07;2.10;;;24.10;52.90;;;;;;5056772;27;93361;-53
2023/09/25 12:14:10;;;;;;;4.77;2.50;;;24.20;53.00;;;;;;5057402;27;92738;-53
2023/09/25 12:16:38;;;;;;;3.67;2.00;;;24.20;53.00;;;;;;5057451;27;92156;-54
2023/09/25 12:19:06;;;;;;;2.03;1.83;;;24.20;53.00;;;;;;5057719;27;91991;-53
2023/09/25 12:21:34;;;;;;;2.03;1.10;;;24.20;53.00;;;;;;5057478;27;93047;-53
2023/09/25 12:24:05;;;;;;;4.27;2.17;;;24.20;53.70;;;;;;5057661;27;93909;-53
2023/09/25 12:26:33;;;;;;;1.63;1.43;;;24.20;53.00;;;;;;5057843;27;92074;-54
2023/09/25 12:29:03;;;;;;;2.57;1.70;;;24.20;53.00;;;;;;5057601;27;92042;-53
2023/09/25 12:31:31;;;;;;;2.40;1.63;;;24.30;53.00;;;;;;5051315;27;94985;-54
2023/09/25 12:34:00;;;;;;;3.27;1.83;;;24.30;53.00;;;;;;5056802;27;93889;-53
2023/09/25 12:36:28;;;;;;;1.97;1.60;;;24.30;53.00;;;;;;5057365;27;92053;-53
2023/09/25 12:38:56;;;;;;;2.90;1.87;;;24.30;53.00;;;;;;5057207;27;92214;-54
2023/09/25 12:41:24;;;;;;;2.50;1.70;;;24.30;53.00;;;;;;5055433;27;91932;-54
2023/09/25 12:43:52;;;;;;;3.20;1.93;;;24.40;53.10;;;;;;5056552;27;92760;-54
2023/09/25 12:46:21;;;;;;;3.33;1.80;;;24.40;53.10;;;;;;5056072;27;91955;-54
2023/09/25 12:48:50;;;;;;;2.90;1.60;;;24.40;53.10;;;;;;5055829;27;91395;-53
2023/09/25 12:51:18;;;;;;;3.20;2.17;;;24.40;53.10;;;;;;5056353;27;93035;-54
2023/09/25 12:53:47;;;;;;;4.03;2.37;;;24.40;53.10;;;;;;5055687;27;94245;-54
2023/09/25 12:56:15;;;;;;;7.27;2.03;;;24.40;53.10;;;;;;5056782;27;92804;-54